sensor_id;sensor_type;location;lat;lon;timestamp;pressure;altitude;pressure_sealevel;temperature
28803;BMP280;15949;55.656;37.422;2023-06-22T00:00:22;99731.72;;;9.75
28803;BMP280;15949;55.656;37.422;2023-06-22T00:05:28;99732.69;;;9.71
28803;BMP280;15949;55.656;37.422;2023-06-22T00:10:34;99726.09;;;9.64
28803;BMP280;15949;55.656;37.422;2023-06-22T00:15:41;99733.78;;;9.61
28803;BMP280;15949;55.656;37.422;2023-06-22T00:20:47;99733.97;;;9.56
28803;BMP280;15949;55.656;37.422;2023-06-22T00:25:52;99732.94;;;9.48
28803;BMP280;15949;55.656;37.422;2023-06-22T00:30:58;99731.59;;;9.42
28803;BMP280;15949;55.656;37.422;2023-06-22T00:36:04;99732.81;;;9.36
28803;BMP280;15949;55.656;37.422;2023-06-22T00:41:10;99731.94;;;9.32
28803;BMP280;15949;55.656;37.422;2023-06-22T00:46:15;99735.78;;;9.26
28803;BMP280;15949;55.656;37.422;2023-06-22T00:51:21;99733.38;;;9.21
28803;BMP280;15949;55.656;37.422;2023-06-22T00:56:29;99732.00;;;9.15
28803;BMP280;15949;55.656;37.422;2023-06-22T01:01:35;99730.34;;;9.11
28803;BMP280;15949;55.656;37.422;2023-06-22T01:12:27;99730.50;;;9.05
28803;BMP280;15949;55.656;37.422;2023-06-22T01:17:40;99733.25;;;9.00
28803;BMP280;15949;55.656;37.422;2023-06-22T01:24:22;99742.47;;;8.98
28803;BMP280;15949;55.656;37.422;2023-06-22T01:28:57;99737.28;;;8.98
28803;BMP280;15949;55.656;37.422;2023-06-22T01:34:06;99734.03;;;9.01
28803;BMP280;15949;55.656;37.422;2023-06-22T01:39:13;99731.69;;;9.08
28803;BMP280;15949;55.656;37.422;2023-06-22T01:44:19;99739.34;;;9.13
28803;BMP280;15949;55.656;37.422;2023-06-22T01:49:27;99732.25;;;9.22
28803;BMP280;15949;55.656;37.422;2023-06-22T01:54:33;99725.22;;;9.23
28803;BMP280;15949;55.656;37.422;2023-06-22T01:59:57;99741.88;;;9.30
28803;BMP280;15949;55.656;37.422;2023-06-22T02:05:09;99736.50;;;9.35
28803;BMP280;15949;55.656;37.422;2023-06-22T02:10:19;99745.38;;;9.43
28803;BMP280;15949;55.656;37.422;2023-06-22T02:15:26;99735.56;;;9.48
28803;BMP280;15949;55.656;37.422;2023-06-22T02:20:32;99732.91;;;9.57
28803;BMP280;15949;55.656;37.422;2023-06-22T02:25:37;99741.09;;;9.68
28803;BMP280;15949;55.656;37.422;2023-06-22T02:30:43;99717.75;;;9.80
28803;BMP280;15949;55.656;37.422;2023-06-22T02:35:49;99710.69;;;10.01
28803;BMP280;15949;55.656;37.422;2023-06-22T02:40:54;99710.16;;;10.28
28803;BMP280;15949;55.656;37.422;2023-06-22T02:46:00;99704.81;;;10.57
28803;BMP280;15949;55.656;37.422;2023-06-22T02:51:06;99696.81;;;10.86
28803;BMP280;15949;55.656;37.422;2023-06-22T02:56:12;99700.28;;;11.15
28803;BMP280;15949;55.656;37.422;2023-06-22T03:01:18;99696.56;;;11.40
28803;BMP280;15949;55.656;37.422;2023-06-22T03:06:29;99698.81;;;11.66
28803;BMP280;15949;55.656;37.422;2023-06-22T03:11:35;99694.91;;;11.87
28803;BMP280;15949;55.656;37.422;2023-06-22T03:16:40;99686.16;;;12.07
28803;BMP280;15949;55.656;37.422;2023-06-22T03:21:46;99689.22;;;12.25
28803;BMP280;15949;55.656;37.422;2023-06-22T03:26:51;99692.28;;;12.43
28803;BMP280;15949;55.656;37.422;2023-06-22T03:31:57;99675.13;;;12.61
28803;BMP280;15949;55.656;37.422;2023-06-22T03:37:03;99683.16;;;12.84
28803;BMP280;15949;55.656;37.422;2023-06-22T03:42:09;99669.38;;;13.02
28803;BMP280;15949;55.656;37.422;2023-06-22T03:47:14;99663.88;;;13.26
28803;BMP280;15949;55.656;37.422;2023-06-22T03:52:21;99656.53;;;13.51
28803;BMP280;15949;55.656;37.422;2023-06-22T03:57:27;99664.84;;;13.76
28803;BMP280;15949;55.656;37.422;2023-06-22T04:02:33;99660.16;;;14.07
28803;BMP280;15949;55.656;37.422;2023-06-22T04:07:39;99658.78;;;14.36
28803;BMP280;15949;55.656;37.422;2023-06-22T04:12:44;99658.47;;;14.64
28803;BMP280;15949;55.656;37.422;2023-06-22T04:17:50;99656.28;;;14.99
28803;BMP280;15949;55.656;37.422;2023-06-22T04:22:56;99646.97;;;15.31
28803;BMP280;15949;55.656;37.422;2023-06-22T04:28:01;99640.53;;;15.66
28803;BMP280;15949;55.656;37.422;2023-06-22T04:33:08;99642.72;;;16.00
28803;BMP280;15949;55.656;37.422;2023-06-22T04:38:14;99641.44;;;16.31
28803;BMP280;15949;55.656;37.422;2023-06-22T04:43:20;99640.88;;;16.55
28803;BMP280;15949;55.656;37.422;2023-06-22T04:48:26;99646.25;;;16.80
28803;BMP280;15949;55.656;37.422;2023-06-22T04:53:37;99640.69;;;16.99
28803;BMP280;15949;55.656;37.422;2023-06-22T04:58:46;99644.81;;;16.93
28803;BMP280;15949;55.656;37.422;2023-06-22T05:03:52;99631.72;;;17.11
28803;BMP280;15949;55.656;37.422;2023-06-22T05:09:01;99642.66;;;17.30
28803;BMP280;15949;55.656;37.422;2023-06-22T05:14:08;99646.09;;;17.41
28803;BMP280;15949;55.656;37.422;2023-06-22T05:19:14;99643.88;;;17.64
28803;BMP280;15949;55.656;37.422;2023-06-22T05:24:20;99646.88;;;17.88
28803;BMP280;15949;55.656;37.422;2023-06-22T05:29:25;99643.88;;;18.03
28803;BMP280;15949;55.656;37.422;2023-06-22T05:34:32;99638.56;;;18.14
28803;BMP280;15949;55.656;37.422;2023-06-22T05:39:38;99632.16;;;18.29
28803;BMP280;15949;55.656;37.422;2023-06-22T05:44:43;99644.19;;;18.30
28803;BMP280;15949;55.656;37.422;2023-06-22T05:49:49;99637.03;;;18.30
28803;BMP280;15949;55.656;37.422;2023-06-22T05:54:55;99634.78;;;18.29
28803;BMP280;15949;55.656;37.422;2023-06-22T06:00:00;99632.47;;;18.38
28803;BMP280;15949;55.656;37.422;2023-06-22T06:05:06;99634.69;;;18.50
28803;BMP280;15949;55.656;37.422;2023-06-22T06:10:12;99632.84;;;18.47
28803;BMP280;15949;55.656;37.422;2023-06-22T06:15:18;99627.41;;;18.89
28803;BMP280;15949;55.656;37.422;2023-06-22T06:20:25;99628.31;;;19.30
28803;BMP280;15949;55.656;37.422;2023-06-22T06:25:31;99630.38;;;19.53
28803;BMP280;15949;55.656;37.422;2023-06-22T06:30:37;99624.97;;;19.67
28803;BMP280;15949;55.656;37.422;2023-06-22T06:35:42;99623.28;;;20.28
28803;BMP280;15949;55.656;37.422;2023-06-22T06:40:48;99622.44;;;20.65
28803;BMP280;15949;55.656;37.422;2023-06-22T06:45:54;99628.41;;;20.72
28803;BMP280;15949;55.656;37.422;2023-06-22T06:51:00;99620.78;;;20.78
28803;BMP280;15949;55.656;37.422;2023-06-22T06:56:05;99629.72;;;20.87
28803;BMP280;15949;55.656;37.422;2023-06-22T07:01:12;99623.81;;;20.76
28803;BMP280;15949;55.656;37.422;2023-06-22T07:06:18;99622.81;;;20.93
28803;BMP280;15949;55.656;37.422;2023-06-22T07:11:23;99628.22;;;21.13
28803;BMP280;15949;55.656;37.422;2023-06-22T07:16:29;99627.81;;;20.88
28803;BMP280;15949;55.656;37.422;2023-06-22T07:21:36;99621.63;;;20.98
28803;BMP280;15949;55.656;37.422;2023-06-22T07:26:42;99616.44;;;20.91
28803;BMP280;15949;55.656;37.422;2023-06-22T07:31:51;99611.94;;;21.11
28803;BMP280;15949;55.656;37.422;2023-06-22T07:36:56;99608.75;;;21.23
28803;BMP280;15949;55.656;37.422;2023-06-22T07:42:02;99606.13;;;21.43
28803;BMP280;15949;55.656;37.422;2023-06-22T07:47:08;99609.28;;;22.00
28803;BMP280;15949;55.656;37.422;2023-06-22T07:52:14;99611.16;;;22.03
28803;BMP280;15949;55.656;37.422;2023-06-22T07:57:20;99615.31;;;21.61
28803;BMP280;15949;55.656;37.422;2023-06-22T08:02:26;99596.34;;;21.40
28803;BMP280;15949;55.656;37.422;2023-06-22T08:07:32;99595.16;;;21.44
28803;BMP280;15949;55.656;37.422;2023-06-22T08:12:39;99588.88;;;21.35
28803;BMP280;15949;55.656;37.422;2023-06-22T08:17:45;99583.34;;;21.49
28803;BMP280;15949;55.656;37.422;2023-06-22T08:22:53;99592.34;;;21.51
28803;BMP280;15949;55.656;37.422;2023-06-22T08:28:00;99586.81;;;21.85
28803;BMP280;15949;55.656;37.422;2023-06-22T08:33:06;99588.88;;;21.97
28803;BMP280;15949;55.656;37.422;2023-06-22T08:38:11;99582.22;;;22.44
28803;BMP280;15949;55.656;37.422;2023-06-22T08:43:19;99570.53;;;22.22
28803;BMP280;15949;55.656;37.422;2023-06-22T08:48:24;99564.75;;;22.27
28803;BMP280;15949;55.656;37.422;2023-06-22T08:53:30;99569.06;;;22.21
28803;BMP280;15949;55.656;37.422;2023-06-22T08:58:36;99562.25;;;22.56
28803;BMP280;15949;55.656;37.422;2023-06-22T09:03:42;99567.31;;;23.15
28803;BMP280;15949;55.656;37.422;2023-06-22T09:08:47;99559.59;;;23.61
28803;BMP280;15949;55.656;37.422;2023-06-22T09:13:53;99554.56;;;23.92
28803;BMP280;15949;55.656;37.422;2023-06-22T09:18:59;99541.34;;;23.76
28803;BMP280;15949;55.656;37.422;2023-06-22T09:24:05;99539.56;;;23.98
28803;BMP280;15949;55.656;37.422;2023-06-22T09:29:11;99538.19;;;24.31
28803;BMP280;15949;55.656;37.422;2023-06-22T09:34:16;99529.44;;;24.43
28803;BMP280;15949;55.656;37.422;2023-06-22T09:39:25;99527.78;;;24.71
28803;BMP280;15949;55.656;37.422;2023-06-22T09:44:31;99531.19;;;25.06
28803;BMP280;15949;55.656;37.422;2023-06-22T09:49:36;99529.63;;;25.30
28803;BMP280;15949;55.656;37.422;2023-06-22T09:54:42;99508.28;;;25.60
28803;BMP280;15949;55.656;37.422;2023-06-22T09:59:48;99511.22;;;25.84
28803;BMP280;15949;55.656;37.422;2023-06-22T10:04:53;99507.91;;;25.80
28803;BMP280;15949;55.656;37.422;2023-06-22T10:09:59;99504.00;;;26.12
28803;BMP280;15949;55.656;37.422;2023-06-22T10:15:05;99508.53;;;26.33
28803;BMP280;15949;55.656;37.422;2023-06-22T10:20:11;99498.84;;;26.26
28803;BMP280;15949;55.656;37.422;2023-06-22T10:25:17;99480.47;;;26.64
28803;BMP280;15949;55.656;37.422;2023-06-22T10:30:23;99471.22;;;27.01
28803;BMP280;15949;55.656;37.422;2023-06-22T10:35:28;99474.13;;;27.31
28803;BMP280;15949;55.656;37.422;2023-06-22T10:40:34;99455.84;;;27.62
28803;BMP280;15949;55.656;37.422;2023-06-22T10:45:40;99450.63;;;27.35
28803;BMP280;15949;55.656;37.422;2023-06-22T10:50:46;99447.75;;;27.80
28803;BMP280;15949;55.656;37.422;2023-06-22T10:55:52;99443.66;;;28.08
28803;BMP280;15949;55.656;37.422;2023-06-22T11:00:59;99430.69;;;28.15
28803;BMP280;15949;55.656;37.422;2023-06-22T11:06:05;99424.25;;;27.98
28803;BMP280;15949;55.656;37.422;2023-06-22T11:11:10;99431.53;;;27.09
28803;BMP280;15949;55.656;37.422;2023-06-22T11:16:16;99415.59;;;27.80
28803;BMP280;15949;55.656;37.422;2023-06-22T11:21:21;99418.00;;;28.31
28803;BMP280;15949;55.656;37.422;2023-06-22T11:26:27;99410.38;;;28.67
28803;BMP280;15949;55.656;37.422;2023-06-22T11:31:36;99413.19;;;28.20
28803;BMP280;15949;55.656;37.422;2023-06-22T11:36:43;99413.72;;;28.91
28803;BMP280;15949;55.656;37.422;2023-06-22T11:41:49;99393.84;;;29.18
28803;BMP280;15949;55.656;37.422;2023-06-22T11:46:55;99402.34;;;29.71
28803;BMP280;15949;55.656;37.422;2023-06-22T11:52:00;99395.56;;;29.56
28803;BMP280;15949;55.656;37.422;2023-06-22T11:57:06;99390.88;;;29.16
28803;BMP280;15949;55.656;37.422;2023-06-22T12:02:12;99388.88;;;29.31
28803;BMP280;15949;55.656;37.422;2023-06-22T12:07:17;99365.78;;;28.70
28803;BMP280;15949;55.656;37.422;2023-06-22T12:12:23;99366.13;;;28.19
28803;BMP280;15949;55.656;37.422;2023-06-22T12:17:33;99352.84;;;28.54
28803;BMP280;15949;55.656;37.422;2023-06-22T12:22:41;99353.94;;;28.33
28803;BMP280;15949;55.656;37.422;2023-06-22T12:27:47;99348.94;;;28.69
28803;BMP280;15949;55.656;37.422;2023-06-22T12:32:52;99344.66;;;28.19
28803;BMP280;15949;55.656;37.422;2023-06-22T12:37:58;99328.03;;;28.15
28803;BMP280;15949;55.656;37.422;2023-06-22T12:43:03;99328.31;;;28.46
28803;BMP280;15949;55.656;37.422;2023-06-22T12:48:09;99326.72;;;27.96
28803;BMP280;15949;55.656;37.422;2023-06-22T12:53:15;99331.06;;;28.08
28803;BMP280;15949;55.656;37.422;2023-06-22T12:58:20;99329.72;;;27.51
28803;BMP280;15949;55.656;37.422;2023-06-22T13:03:26;99317.81;;;27.90
28803;BMP280;15949;55.656;37.422;2023-06-22T13:08:33;99313.81;;;27.47
28803;BMP280;15949;55.656;37.422;2023-06-22T13:13:38;99305.91;;;27.53
28803;BMP280;15949;55.656;37.422;2023-06-22T13:18:44;99301.06;;;28.18
28803;BMP280;15949;55.656;37.422;2023-06-22T13:23:50;99303.59;;;29.06
28803;BMP280;15949;55.656;37.422;2023-06-22T13:28:55;99296.84;;;29.56
28803;BMP280;15949;55.656;37.422;2023-06-22T13:34:01;99297.59;;;29.77
28803;BMP280;15949;55.656;37.422;2023-06-22T13:39:06;99282.66;;;29.76
28803;BMP280;15949;55.656;37.422;2023-06-22T13:44:12;99285.31;;;28.55
28803;BMP280;15949;55.656;37.422;2023-06-22T13:49:18;99277.88;;;28.99
28803;BMP280;15949;55.656;37.422;2023-06-22T13:54:24;99271.41;;;29.11
28803;BMP280;15949;55.656;37.422;2023-06-22T13:59:29;99265.72;;;28.84
28803;BMP280;15949;55.656;37.422;2023-06-22T14:04:35;99264.91;;;28.78
28803;BMP280;15949;55.656;37.422;2023-06-22T14:09:41;99261.47;;;28.43
28803;BMP280;15949;55.656;37.422;2023-06-22T14:14:47;99258.56;;;28.46
28803;BMP280;15949;55.656;37.422;2023-06-22T14:19:52;99259.63;;;28.83
28803;BMP280;15949;55.656;37.422;2023-06-22T14:24:58;99253.00;;;28.84
28803;BMP280;15949;55.656;37.422;2023-06-22T14:30:04;99249.34;;;29.22
28803;BMP280;15949;55.656;37.422;2023-06-22T14:35:10;99247.13;;;29.20
28803;BMP280;15949;55.656;37.422;2023-06-22T14:40:16;99258.09;;;28.97
28803;BMP280;15949;55.656;37.422;2023-06-22T14:45:25;99241.38;;;29.27
28803;BMP280;15949;55.656;37.422;2023-06-22T14:50:31;99234.97;;;29.45
28803;BMP280;15949;55.656;37.422;2023-06-22T14:55:36;99244.03;;;29.47
28803;BMP280;15949;55.656;37.422;2023-06-22T15:00:42;99242.84;;;30.95
28803;BMP280;15949;55.656;37.422;2023-06-22T15:05:47;99238.84;;;31.49
28803;BMP280;15949;55.656;37.422;2023-06-22T15:10:53;99233.47;;;31.49
28803;BMP280;15949;55.656;37.422;2023-06-22T15:16:03;99221.72;;;31.63
28803;BMP280;15949;55.656;37.422;2023-06-22T15:21:12;99223.00;;;29.46
28803;BMP280;15949;55.656;37.422;2023-06-22T15:26:17;99223.75;;;28.17
28803;BMP280;15949;55.656;37.422;2023-06-22T15:31:23;99218.66;;;29.08
28803;BMP280;15949;55.656;37.422;2023-06-22T15:36:29;99208.25;;;30.71
28803;BMP280;15949;55.656;37.422;2023-06-22T15:41:34;99210.94;;;30.24
28803;BMP280;15949;55.656;37.422;2023-06-22T15:46:40;99214.22;;;28.65
28803;BMP280;15949;55.656;37.422;2023-06-22T15:51:46;99210.81;;;28.15
28803;BMP280;15949;55.656;37.422;2023-06-22T15:56:51;99201.13;;;29.33
28803;BMP280;15949;55.656;37.422;2023-06-22T16:01:57;99204.25;;;29.06
28803;BMP280;15949;55.656;37.422;2023-06-22T16:07:03;99200.28;;;27.97
28803;BMP280;15949;55.656;37.422;2023-06-22T16:12:09;99198.28;;;27.40
28803;BMP280;15949;55.656;37.422;2023-06-22T16:17:14;99197.69;;;26.97
28803;BMP280;15949;55.656;37.422;2023-06-22T16:22:23;99194.75;;;26.12
28803;BMP280;15949;55.656;37.422;2023-06-22T16:27:29;99178.78;;;25.58
28803;BMP280;15949;55.656;37.422;2023-06-22T16:32:37;99182.63;;;25.12
28803;BMP280;15949;55.656;37.422;2023-06-22T16:37:43;99178.94;;;24.78
28803;BMP280;15949;55.656;37.422;2023-06-22T16:42:49;99172.72;;;24.42
28803;BMP280;15949;55.656;37.422;2023-06-22T16:47:55;99176.47;;;24.01
28803;BMP280;15949;55.656;37.422;2023-06-22T16:53:01;99178.09;;;23.77
28803;BMP280;15949;55.656;37.422;2023-06-22T16:58:09;99174.19;;;23.56
28803;BMP280;15949;55.656;37.422;2023-06-22T17:03:27;99180.53;;;23.25
28803;BMP280;15949;55.656;37.422;2023-06-22T17:08:34;99185.88;;;22.62
28803;BMP280;15949;55.656;37.422;2023-06-22T17:13:40;99187.94;;;22.13
28803;BMP280;15949;55.656;37.422;2023-06-22T17:18:48;99191.22;;;21.76
28803;BMP280;15949;55.656;37.422;2023-06-22T17:23:55;99193.34;;;21.33
28803;BMP280;15949;55.656;37.422;2023-06-22T17:29:08;99200.44;;;21.03
28803;BMP280;15949;55.656;37.422;2023-06-22T17:34:16;99204.34;;;20.79
28803;BMP280;15949;55.656;37.422;2023-06-22T17:39:25;99208.50;;;20.41
28803;BMP280;15949;55.656;37.422;2023-06-22T17:44:31;99205.47;;;20.19
28803;BMP280;15949;55.656;37.422;2023-06-22T17:49:38;99213.75;;;19.98
28803;BMP280;15949;55.656;37.422;2023-06-22T17:54:44;99219.84;;;19.72
28803;BMP280;15949;55.656;37.422;2023-06-22T17:59:50;99218.31;;;19.48
28803;BMP280;15949;55.656;37.422;2023-06-22T18:05:02;99223.69;;;19.14
28803;BMP280;15949;55.656;37.422;2023-06-22T18:10:09;99228.69;;;19.05
28803;BMP280;15949;55.656;37.422;2023-06-22T18:15:15;99231.94;;;18.86
28803;BMP280;15949;55.656;37.422;2023-06-22T18:20:21;99231.00;;;18.66
28803;BMP280;15949;55.656;37.422;2023-06-22T18:25:30;99232.00;;;18.42
28803;BMP280;15949;55.656;37.422;2023-06-22T18:30:39;99227.66;;;18.25
28803;BMP280;15949;55.656;37.422;2023-06-22T18:35:44;99226.22;;;18.10
28803;BMP280;15949;55.656;37.422;2023-06-22T18:40:51;99225.28;;;17.90
28803;BMP280;15949;55.656;37.422;2023-06-22T18:46:36;99225.72;;;17.77
28803;BMP280;15949;55.656;37.422;2023-06-22T18:57:01;99232.66;;;17.54
28803;BMP280;15949;55.656;37.422;2023-06-22T19:02:09;99229.66;;;17.48
28803;BMP280;15949;55.656;37.422;2023-06-22T19:07:16;99224.44;;;17.38
28803;BMP280;15949;55.656;37.422;2023-06-22T19:12:23;99226.72;;;17.32
28803;BMP280;15949;55.656;37.422;2023-06-22T19:17:30;99214.72;;;17.24
28803;BMP280;15949;55.656;37.422;2023-06-22T19:27:53;99222.31;;;17.05
28803;BMP280;15949;55.656;37.422;2023-06-22T19:32:59;99221.97;;;16.92
28803;BMP280;15949;55.656;37.422;2023-06-22T19:38:07;99214.84;;;16.85
28803;BMP280;15949;55.656;37.422;2023-06-22T19:43:13;99213.38;;;16.77
28803;BMP280;15949;55.656;37.422;2023-06-22T19:48:24;99210.38;;;16.65
28803;BMP280;15949;55.656;37.422;2023-06-22T19:53:30;99208.13;;;16.60
28803;BMP280;15949;55.656;37.422;2023-06-22T19:58:37;99190.84;;;16.45
28803;BMP280;15949;55.656;37.422;2023-06-22T20:03:42;99202.50;;;16.40
28803;BMP280;15949;55.656;37.422;2023-06-22T20:08:49;99192.75;;;16.30
28803;BMP280;15949;55.656;37.422;2023-06-22T20:13:55;99191.59;;;16.13
28803;BMP280;15949;55.656;37.422;2023-06-22T20:19:08;99188.59;;;16.04
28803;BMP280;15949;55.656;37.422;2023-06-22T20:24:17;99182.59;;;16.00
28803;BMP280;15949;55.656;37.422;2023-06-22T20:29:30;99163.81;;;16.05
28803;BMP280;15949;55.656;37.422;2023-06-22T20:34:42;99161.56;;;15.93
28803;BMP280;15949;55.656;37.422;2023-06-22T20:39:50;99154.03;;;15.88
28803;BMP280;15949;55.656;37.422;2023-06-22T20:44:56;99140.16;;;15.81
28803;BMP280;15949;55.656;37.422;2023-06-22T20:50:03;99138.25;;;15.81
28803;BMP280;15949;55.656;37.422;2023-06-22T20:55:09;99126.25;;;15.84
28803;BMP280;15949;55.656;37.422;2023-06-22T21:00:15;99132.25;;;15.77
28803;BMP280;15949;55.656;37.422;2023-06-22T21:05:22;99123.59;;;15.70
28803;BMP280;15949;55.656;37.422;2023-06-22T21:10:28;99151.78;;;15.69
28803;BMP280;15949;55.656;37.422;2023-06-22T21:15:33;99145.00;;;15.61
28803;BMP280;15949;55.656;37.422;2023-06-22T21:20:39;99134.50;;;15.54
28803;BMP280;15949;55.656;37.422;2023-06-22T21:25:47;99125.47;;;15.44
28803;BMP280;15949;55.656;37.422;2023-06-22T21:30:54;99123.94;;;15.43
28803;BMP280;15949;55.656;37.422;2023-06-22T21:36:00;99119.06;;;15.35
28803;BMP280;15949;55.656;37.422;2023-06-22T21:41:06;99108.50;;;15.28
28803;BMP280;15949;55.656;37.422;2023-06-22T21:46:11;99101.34;;;15.18
28803;BMP280;15949;55.656;37.422;2023-06-22T21:51:17;99095.72;;;15.12
28803;BMP280;15949;55.656;37.422;2023-06-22T21:56:23;99076.53;;;15.01
28803;BMP280;15949;55.656;37.422;2023-06-22T22:01:28;99075.38;;;14.92
28803;BMP280;15949;55.656;37.422;2023-06-22T22:06:34;99061.50;;;14.88
28803;BMP280;15949;55.656;37.422;2023-06-22T22:11:40;99063.69;;;14.68
28803;BMP280;15949;55.656;37.422;2023-06-22T22:16:45;99079.41;;;14.64
28803;BMP280;15949;55.656;37.422;2023-06-22T22:21:51;99073.00;;;14.58
28803;BMP280;15949;55.656;37.422;2023-06-22T22:26:57;99074.06;;;14.50
28803;BMP280;15949;55.656;37.422;2023-06-22T22:32:03;99046.00;;;14.54
28803;BMP280;15949;55.656;37.422;2023-06-22T22:37:09;99065.06;;;14.51
28803;BMP280;15949;55.656;37.422;2023-06-22T22:42:14;99070.31;;;14.48
28803;BMP280;15949;55.656;37.422;2023-06-22T22:47:20;99054.91;;;14.43
28803;BMP280;15949;55.656;37.422;2023-06-22T22:52:29;99061.25;;;14.35
28803;BMP280;15949;55.656;37.422;2023-06-22T22:57:39;99068.72;;;14.29
28803;BMP280;15949;55.656;37.422;2023-06-22T23:02:45;99051.84;;;14.30
28803;BMP280;15949;55.656;37.422;2023-06-22T23:07:53;99046.59;;;14.23
28803;BMP280;15949;55.656;37.422;2023-06-22T23:12:58;99050.66;;;14.21
28803;BMP280;15949;55.656;37.422;2023-06-22T23:18:04;99050.66;;;14.17
28803;BMP280;15949;55.656;37.422;2023-06-22T23:23:10;99052.88;;;14.15
28803;BMP280;15949;55.656;37.422;2023-06-22T23:28:15;99048.38;;;14.12
28803;BMP280;15949;55.656;37.422;2023-06-22T23:33:22;99036.38;;;14.11
28803;BMP280;15949;55.656;37.422;2023-06-22T23:38:29;99036.00;;;14.09
28803;BMP280;15949;55.656;37.422;2023-06-22T23:43:37;99035.97;;;14.05
28803;BMP280;15949;55.656;37.422;2023-06-22T23:48:44;99019.09;;;14.03
28803;BMP280;15949;55.656;37.422;2023-06-22T23:53:51;99016.09;;;14.01
28803;BMP280;15949;55.656;37.422;2023-06-22T23:58:56;99019.09;;;14.03
